Time;durP1;ratioP1;P1;durP2;ratioP2;P2;SDS_P1;SDS_P2;PMS_P1;PMS_P2;Temp;Humidity;BMP_temperature;BMP_pressure;BME280_temperature;BME280_humidity;BME280_pressure;Samples;Min_cycle;Max_cycle;Signal;HPM_P1;HPM_P2
2023/03/06 00:00:58;;;;;;;2.17;1.10;;;8.20;31.60;;;;;;5059305;28;20187;-73
2023/03/06 00:03:26;;;;;;;2.33;1.40;;;8.40;29.70;;;;;;5054798;28;20207;-74
2023/03/06 00:05:55;;;;;;;2.67;1.65;;;8.60;29.50;;;;;;5063100;28;20860;-74
2023/03/06 00:08:21;;;;;;;2.60;1.90;;;8.60;29.10;;;;;;5062892;28;20271;-72
2023/03/06 00:10:47;;;;;;;2.90;1.30;;;8.50;29.40;;;;;;5062488;28;20259;-72
2023/03/06 00:13:17;;;;;;;2.13;1.10;;;8.30;30.60;;;;;;5055287;28;20423;-74
2023/03/06 00:15:43;;;;;;;3.15;1.42;;;8.20;30.00;;;;;;5057939;28;20238;-74
2023/03/06 00:18:09;;;;;;;2.73;1.60;;;8.30;29.40;;;;;;5061705;28;20223;-74
2023/03/06 00:20:35;;;;;;;2.40;1.40;;;8.50;29.20;;;;;;5067270;28;20278;-73
2023/03/06 00:23:01;;;;;;;2.47;1.52;;;8.50;29.50;;;;;;5060882;28;20575;-75
2023/03/06 00:25:27;;;;;;;2.80;1.83;;;8.40;30.00;;;;;;5070930;28;20235;-74
2023/03/06 00:27:52;;;;;;;2.17;1.07;;;8.50;29.80;;;;;;5065467;28;20512;-74
2023/03/06 00:30:21;;;;;;;2.20;1.20;;;8.40;29.60;;;;;;5062291;28;20675;-73
2023/03/06 00:32:47;;;;;;;2.35;1.35;;;8.30;30.00;;;;;;5066340;28;20194;-74
2023/03/06 00:35:13;;;;;;;2.20;1.10;;;8.20;30.20;;;;;;5061765;28;20210;-74
2023/03/06 00:37:39;;;;;;;2.40;1.30;;;8.20;29.90;;;;;;5058273;28;20184;-74
2023/03/06 00:40:06;;;;;;;2.23;1.13;;;8.20;29.70;;;;;;5054373;28;20215;-73
2023/03/06 00:42:32;;;;;;;2.50;1.50;;;7.90;30.40;;;;;;5062472;28;20811;-74
2023/03/06 00:44:58;;;;;;;2.30;1.20;;;7.90;30.00;;;;;;5057008;28;20176;-75
2023/03/06 00:47:23;;;;;;;3.07;1.87;;;7.90;30.80;;;;;;5051380;28;20215;-74
2023/03/06 00:49:49;;;;;;;2.30;1.40;;;7.90;30.80;;;;;;5054174;28;20298;-74
2023/03/06 00:52:14;;;;;;;2.20;1.20;;;7.90;31.40;;;;;;5067157;28;20180;-73
2023/03/06 00:54:40;;;;;;;2.20;1.13;;;7.90;30.90;;;;;;5055312;28;20262;-75
2023/03/06 00:57:07;;;;;;;2.20;1.10;;;7.90;29.90;;;;;;5070906;28;20195;-75
2023/03/06 00:59:32;;;;;;;2.20;1.10;;;7.90;30.70;;;;;;5060155;28;20176;-73
2023/03/06 01:01:58;;;;;;;2.40;1.50;;;7.90;30.10;;;;;;5060710;28;20188;-75
2023/03/06 01:04:24;;;;;;;2.40;1.40;;;7.80;30.00;;;;;;5066198;28;20355;-74
2023/03/06 01:06:50;;;;;;;2.20;1.20;;;7.80;30.00;;;;;;5064530;28;20211;-74
2023/03/06 01:09:16;;;;;;;2.10;1.00;;;7.80;29.40;;;;;;5076257;28;20189;-73
2023/03/06 01:11:41;;;;;;;2.10;1.10;;;7.60;29.40;;;;;;5070584;28;20262;-73
2023/03/06 01:14:07;;;;;;;2.10;1.10;;;7.50;30.00;;;;;;5073421;28;20210;-73
2023/03/06 01:16:32;;;;;;;3.13;1.60;;;7.50;29.80;;;;;;5066815;28;20645;-75
2023/03/06 01:18:58;;;;;;;2.60;1.40;;;7.70;30.10;;;;;;5074315;28;20229;-74
2023/03/06 01:21:24;;;;;;;2.17;1.20;;;7.80;29.70;;;;;;5074893;28;20642;-75
2023/03/06 01:23:50;;;;;;;2.10;1.10;;;8.00;30.00;;;;;;5069428;28;20215;-75
2023/03/06 01:26:16;;;;;;;2.10;1.10;;;8.10;29.30;;;;;;5063111;28;20196;-74
2023/03/06 01:28:41;;;;;;;2.17;1.10;;;8.10;29.20;;;;;;5055350;28;20399;-75
2023/03/06 01:31:08;;;;;;;3.50;1.47;;;8.10;29.60;;;;;;5061349;28;20199;-75
2023/03/06 01:33:35;;;;;;;2.13;1.17;;;8.10;29.70;;;;;;5066461;28;20179;-75
2023/03/06 01:36:07;;;;;;;2.20;1.10;;;8.20;29.10;;;;;;5074933;28;20244;-74
2023/03/06 01:38:34;;;;;;;2.20;1.20;;;8.20;30.30;;;;;;5074752;28;20159;-75
2023/03/06 01:41:04;;;;;;;2.10;1.10;;;8.40;28.90;;;;;;5066542;28;20750;-74
2023/03/06 01:43:41;;;;;;;2.25;1.15;;;8.40;28.60;;;;;;5070105;28;20202;-75
2023/03/06 01:46:24;;;;;;;2.10;1.10;;;8.30;29.40;;;;;;5070413;28;20214;-75
2023/03/06 01:49:13;;;;;;;2.10;1.10;;;8.00;28.70;;;;;;5054813;28;20203;-74
2023/03/06 01:51:43;;;;;;;2.10;1.20;;;6.80;30.60;;;;;;5053917;28;20202;-74
2023/03/06 01:54:16;;;;;;;2.08;1.10;;;7.00;31.20;;;;;;5073691;28;20186;-75
2023/03/06 01:56:45;;;;;;;2.10;1.10;;;7.40;30.80;;;;;;5055431;28;20204;-73
2023/03/06 01:59:11;;;;;;;2.40;1.20;;;7.70;30.40;;;;;;5054565;28;20168;-74
2023/03/06 02:01:38;;;;;;;2.10;1.10;;;7.60;29.50;;;;;;5060360;28;20210;-74
2023/03/06 02:04:05;;;;;;;2.17;1.10;;;7.90;29.60;;;;;;5055611;28;20640;-73
2023/03/06 02:06:34;;;;;;;3.92;1.58;;;7.80;29.40;;;;;;5065485;28;20712;-73
2023/03/06 02:09:00;;;;;;;2.50;1.42;;;7.10;30.80;;;;;;5074521;28;20257;-73
2023/03/06 02:11:25;;;;;;;2.87;1.80;;;6.70;33.00;;;;;;5073039;28;20258;-74
2023/03/06 02:13:53;;;;;;;3.20;1.57;;;7.00;32.80;;;;;;5063934;28;20183;-73
2023/03/06 02:16:23;;;;;;;2.20;1.20;;;7.50;32.00;;;;;;5069750;28;20199;-73
2023/03/06 02:18:50;;;;;;;2.15;1.10;;;7.50;31.20;;;;;;5064908;28;20265;-73
2023/03/06 02:21:23;;;;;;;2.20;1.13;;;7.60;31.30;;;;;;5056859;28;20651;-73
2023/03/06 02:24:19;;;;;;;2.28;1.25;;;7.90;30.80;;;;;;5057235;28;20207;-74
2023/03/06 02:26:46;;;;;;;2.38;1.25;;;8.00;31.30;;;;;;5065568;28;20614;-74
2023/03/06 02:29:16;;;;;;;2.30;1.20;;;7.90;31.40;;;;;;5065585;28;20677;-73
2023/03/06 02:31:42;;;;;;;2.45;1.30;;;8.00;31.10;;;;;;5054045;28;20612;-74
2023/03/06 02:34:28;;;;;;;2.20;1.20;;;8.00;30.70;;;;;;5058446;28;20194;-74
2023/03/06 02:37:07;;;;;;;2.20;1.10;;;8.10;30.60;;;;;;5050833;28;20218;-75
2023/03/06 02:39:38;;;;;;;2.50;1.48;;;8.30;29.80;;;;;;5064744;28;20179;-71
2023/03/06 02:42:04;;;;;;;2.97;1.70;;;8.40;29.30;;;;;;5067454;28;20198;-74
2023/03/06 02:44:32;;;;;;;6.33;2.80;;;8.10;30.00;;;;;;5060729;28;20199;-74
2023/03/06 02:46:57;;;;;;;2.30;1.20;;;8.00;29.80;;;;;;5067783;28;20485;-74
2023/03/06 02:49:23;;;;;;;2.50;1.40;;;8.30;29.70;;;;;;5060102;28;20257;-72
2023/03/06 02:51:49;;;;;;;2.30;1.30;;;8.40;28.90;;;;;;5069754;28;20194;-73
2023/03/06 02:54:17;;;;;;;2.60;1.50;;;8.50;28.50;;;;;;5064963;28;20187;-73
2023/03/06 02:56:43;;;;;;;2.50;1.38;;;8.40;28.60;;;;;;5067327;28;20195;-73
2023/03/06 02:59:08;;;;;;;6.10;2.38;;;8.30;28.90;;;;;;5070855;28;20176;-73
2023/03/06 03:01:34;;;;;;;2.40;1.40;;;8.30;29.40;;;;;;5061562;28;20176;-73
2023/03/06 03:04:00;;;;;;;2.40;1.33;;;8.30;29.40;;;;;;5053092;28;20204;-74
2023/03/06 03:06:25;;;;;;;2.20;1.10;;;8.30;29.20;;;;;;5052761;28;20258;-72
2023/03/06 03:08:51;;;;;;;2.23;1.10;;;8.30;29.20;;;;;;5053196;28;20175;-73
2023/03/06 03:11:17;;;;;;;2.27;1.10;;;8.30;29.10;;;;;;5063401;28;20179;-73
2023/03/06 03:13:42;;;;;;;3.17;1.97;;;8.10;29.60;;;;;;5068907;28;20172;-73
2023/03/06 03:16:12;;;;;;;4.10;1.53;;;8.10;30.00;;;;;;5054453;28;20208;-73
2023/03/06 03:18:38;;;;;;;2.78;1.50;;;8.10;30.00;;;;;;5064888;28;20171;-73
2023/03/06 03:21:09;;;;;;;2.97;1.43;;;8.10;29.90;;;;;;5065200;28;20191;-72
2023/03/06 03:23:35;;;;;;;2.30;1.20;;;10.30;32.10;;;;;;5070407;28;20670;-73
2023/03/06 03:26:18;;;;;;;2.77;1.47;;;8.10;30.20;;;;;;5063816;28;20218;-73
2023/03/06 03:28:44;;;;;;;2.60;1.52;;;8.10;30.40;;;;;;5070169;28;20186;-72
2023/03/06 03:31:10;;;;;;;2.60;1.40;;;7.90;30.40;;;;;;5064874;28;20183;-73
2023/03/06 03:33:36;;;;;;;3.63;1.65;;;7.80;30.70;;;;;;5072441;28;20181;-72
2023/03/06 03:36:04;;;;;;;2.30;1.20;;;7.70;31.30;;;;;;5072062;28;20710;-73
2023/03/06 03:38:31;;;;;;;2.40;1.30;;;7.70;31.30;;;;;;5067880;28;20190;-73
2023/03/06 03:40:59;;;;;;;2.40;1.35;;;7.50;31.10;;;;;;5066686;28;20187;-73
2023/03/06 03:43:24;;;;;;;2.38;1.27;;;7.50;31.20;;;;;;5062079;28;20604;-72
2023/03/06 03:45:52;;;;;;;2.30;1.20;;;7.50;31.20;;;;;;5055002;28;20210;-73
2023/03/06 03:48:17;;;;;;;2.28;1.20;;;7.60;31.30;;;;;;5062817;28;20596;-73
2023/03/06 03:50:43;;;;;;;2.20;1.10;;;7.70;31.30;;;;;;5060505;28;20179;-73
2023/03/06 03:53:09;;;;;;;2.30;1.20;;;7.80;31.40;;;;;;5052150;28;20222;-72
2023/03/06 03:55:35;;;;;;;2.20;1.10;;;7.90;30.00;;;;;;5052175;28;20199;-73
2023/03/06 03:58:01;;;;;;;2.20;1.15;;;7.80;30.70;;;;;;5058176;28;20468;-73
2023/03/06 04:00:26;;;;;;;2.20;1.10;;;7.90;29.90;;;;;;5060751;28;20199;-74
2023/03/06 04:02:52;;;;;;;2.30;1.20;;;8.00;29.60;;;;;;5052004;28;20178;-74
2023/03/06 04:05:18;;;;;;;2.23;1.13;;;8.10;29.50;;;;;;5052206;28;20175;-74
2023/03/06 04:07:43;;;;;;;2.30;1.20;;;7.90;30.30;;;;;;5055221;28;20195;-73
2023/03/06 04:10:10;;;;;;;2.20;1.10;;;8.00;30.60;;;;;;5063875;28;20179;-74
2023/03/06 04:12:36;;;;;;;2.40;1.30;;;8.20;30.00;;;;;;5067791;28;20227;-74
2023/03/06 04:15:04;;;;;;;2.77;1.40;;;8.10;29.60;;;;;;5071336;28;20207;-73
2023/03/06 04:17:32;;;;;;;2.20;1.10;;;8.20;28.80;;;;;;5071411;28;20222;-72
2023/03/06 04:19:59;;;;;;;2.20;1.10;;;8.10;29.90;;;;;;5060774;28;21170;-73
2023/03/06 04:22:25;;;;;;;2.20;1.17;;;8.30;30.70;;;;;;5069325;28;20592;-73
2023/03/06 04:24:50;;;;;;;2.50;1.40;;;7.90;29.90;;;;;;5066082;28;20207;-73
2023/03/06 04:27:16;;;;;;;5.40;2.13;;;7.80;30.00;;;;;;5051735;28;20299;-72
2023/03/06 04:29:42;;;;;;;2.30;1.20;;;7.80;30.00;;;;;;5058334;28;20187;-73
2023/03/06 04:32:07;;;;;;;2.30;1.20;;;7.60;30.20;;;;;;5059854;28;20175;-73
2023/03/06 04:34:33;;;;;;;2.67;1.57;;;7.50;30.20;;;;;;5070674;28;20183;-72
2023/03/06 04:36:58;;;;;;;2.40;1.30;;;7.60;30.20;;;;;;5056966;28;20270;-73
2023/03/06 04:39:24;;;;;;;2.37;1.30;;;7.50;30.50;;;;;;5052666;28;20213;-73
2023/03/06 04:41:49;;;;;;;2.20;1.30;;;7.20;31.00;;;;;;5067060;28;20187;-73
2023/03/06 04:44:15;;;;;;;2.20;1.03;;;6.70;32.20;;;;;;5061623;28;20244;-73
2023/03/06 04:46:41;;;;;;;2.20;1.20;;;6.90;31.70;;;;;;5055776;28;20227;-73
2023/03/06 04:49:06;;;;;;;2.80;1.57;;;7.20;31.00;;;;;;5059839;28;20525;-73
2023/03/06 04:51:32;;;;;;;2.90;1.70;;;7.40;30.80;;;;;;5063369;28;20187;-75
2023/03/06 04:53:58;;;;;;;2.40;1.40;;;7.50;31.10;;;;;;5064148;28;20188;-74
2023/03/06 04:56:23;;;;;;;2.40;1.30;;;7.50;30.60;;;;;;5059907;28;20194;-73
2023/03/06 04:58:49;;;;;;;2.70;1.50;;;7.10;30.90;;;;;;5051577;28;20254;-73
2023/03/06 05:01:15;;;;;;;2.30;1.20;;;6.90;31.50;;;;;;5056124;28;20183;-73
2023/03/06 05:03:40;;;;;;;2.40;1.27;;;7.10;31.40;;;;;;5057150;28;20522;-74
2023/03/06 05:06:06;;;;;;;2.40;1.20;;;7.00;31.80;;;;;;5063030;28;20211;-74
2023/03/06 05:08:31;;;;;;;3.27;1.60;;;7.10;31.70;;;;;;5071380;28;20168;-73
2023/03/06 05:10:59;;;;;;;2.50;1.40;;;7.20;31.70;;;;;;5062326;28;20171;-73
2023/03/06 05:13:26;;;;;;;2.90;1.80;;;7.50;31.20;;;;;;5064720;28;20190;-73
2023/03/06 05:15:52;;;;;;;2.28;1.08;;;7.60;31.30;;;;;;5067542;28;20236;-74
2023/03/06 05:18:18;;;;;;;2.40;1.10;;;7.60;32.00;;;;;;5070762;28;20203;-75
2023/03/06 05:20:44;;;;;;;2.50;1.30;;;7.60;31.60;;;;;;5062646;28;20471;-74
2023/03/06 05:23:10;;;;;;;2.30;1.10;;;7.50;32.50;;;;;;5062005;28;20219;-74
2023/03/06 05:25:39;;;;;;;2.60;1.40;;;7.80;29.90;;;;;;5072410;28;20967;-74
2023/03/06 05:28:05;;;;;;;2.30;1.20;;;8.00;30.00;;;;;;5064261;28;20182;-73
2023/03/06 05:30:31;;;;;;;2.23;1.10;;;7.90;30.70;;;;;;5056618;28;20195;-74
2023/03/06 05:32:56;;;;;;;2.67;1.43;;;7.80;30.40;;;;;;5064082;28;20445;-74
2023/03/06 05:35:22;;;;;;;2.27;1.20;;;7.80;30.10;;;;;;5057665;28;20535;-74
2023/03/06 05:37:48;;;;;;;3.17;1.73;;;7.80;30.70;;;;;;5062816;28;20189;-73
2023/03/06 05:40:15;;;;;;;2.30;1.20;;;7.60;30.90;;;;;;5070849;28;20248;-73
2023/03/06 05:42:41;;;;;;;2.40;1.40;;;7.70;29.80;;;;;;5070487;28;20203;-73
2023/03/06 05:45:07;;;;;;;2.50;1.60;;;7.70;29.70;;;;;;5064888;28;20210;-73
2023/03/06 05:47:33;;;;;;;2.60;1.33;;;7.90;29.20;;;;;;5069553;28;20736;-73
2023/03/06 05:49:58;;;;;;;2.60;1.40;;;7.90;29.30;;;;;;5070741;28;20176;-73
2023/03/06 05:52:24;;;;;;;2.50;1.47;;;7.90;31.20;;;;;;5070787;28;20518;-73
2023/03/06 05:54:52;;;;;;;2.30;1.10;;;8.00;29.60;;;;;;5067168;28;20194;-72
2023/03/06 05:57:21;;;;;;;2.30;1.20;;;8.00;29.70;;;;;;5066619;28;20260;-73
2023/03/06 05:59:48;;;;;;;2.25;1.20;;;8.00;30.00;;;;;;5072267;28;20195;-73
2023/03/06 06:02:14;;;;;;;2.75;1.45;;;8.00;28.80;;;;;;5072129;28;20214;-73
2023/03/06 06:04:39;;;;;;;2.90;1.60;;;8.00;29.30;;;;;;5058789;28;20238;-73
2023/03/06 06:07:05;;;;;;;2.90;1.73;;;7.90;30.00;;;;;;5066800;28;20454;-74
2023/03/06 06:09:31;;;;;;;2.80;1.70;;;7.80;30.60;;;;;;5073972;28;20254;-73
2023/03/06 06:12:02;;;;;;;2.50;1.33;;;7.80;30.80;;;;;;5074192;28;20195;-73
2023/03/06 06:14:29;;;;;;;2.40;1.30;;;7.90;30.60;;;;;;5074003;28;20171;-73
2023/03/06 06:16:55;;;;;;;2.30;1.20;;;7.80;30.00;;;;;;5069548;28;20294;-72
2023/03/06 06:19:21;;;;;;;2.40;1.30;;;7.70;30.80;;;;;;5072459;28;20270;-73
2023/03/06 06:21:49;;;;;;;2.20;1.20;;;7.70;29.00;;;;;;5065933;28;20438;-72
2023/03/06 06:24:16;;;;;;;3.30;1.80;;;7.70;29.90;;;;;;5059644;28;20215;-73
2023/03/06 06:26:42;;;;;;;2.95;1.58;;;7.70;30.00;;;;;;5069122;28;20203;-74
2023/03/06 06:29:08;;;;;;;2.28;1.10;;;7.90;29.70;;;;;;5073824;28;20191;-74
2023/03/06 06:31:35;;;;;;;2.30;1.20;;;7.80;29.70;;;;;;5058534;28;20255;-75
2023/03/06 06:34:02;;;;;;;2.40;1.20;;;7.80;30.00;;;;;;5065118;28;20722;-74
2023/03/06 06:36:28;;;;;;;3.58;2.08;;;7.80;30.70;;;;;;5071290;28;20222;-74
2023/03/06 06:38:53;;;;;;;2.50;1.30;;;6.00;28.20;;;;;;5061413;28;20195;-74
2023/03/06 06:41:19;;;;;;;2.30;1.20;;;8.00;29.90;;;;;;5062006;28;20180;-73
2023/03/06 06:43:44;;;;;;;2.20;1.10;;;7.90;29.30;;;;;;5061533;28;20207;-74
2023/03/06 06:46:10;;;;;;;2.20;1.10;;;7.90;30.10;;;;;;5056933;28;20214;-75
2023/03/06 06:48:36;;;;;;;2.40;1.33;;;7.90;29.60;;;;;;5065737;28;20691;-74
2023/03/06 06:51:02;;;;;;;2.20;1.10;;;7.90;29.80;;;;;;5073257;28;20171;-74
2023/03/06 06:53:28;;;;;;;2.30;1.20;;;7.90;29.50;;;;;;5066281;28;20179;-74
2023/03/06 06:55:53;;;;;;;3.47;1.73;;;8.10;29.00;;;;;;5062376;28;20284;-74
2023/03/06 06:58:19;;;;;;;2.20;1.10;;;8.10;29.00;;;;;;5068394;28;20258;-74
2023/03/06 07:00:44;;;;;;;2.30;1.20;;;8.20;28.50;;;;;;5067804;28;20639;-75
2023/03/06 07:03:13;;;;;;;2.20;1.10;;;8.40;28.00;;;;;;5061544;28;20195;-74
2023/03/06 07:05:38;;;;;;;3.13;1.50;;;8.00;27.90;;;;;;5060925;28;20215;-74
2023/03/06 07:08:04;;;;;;;2.30;1.20;;;7.80;28.70;;;;;;5071437;28;20209;-74
2023/03/06 07:10:31;;;;;;;2.20;1.20;;;8.10;28.10;;;;;;5069585;28;20559;-74
2023/03/06 07:12:56;;;;;;;2.30;1.20;;;8.20;28.70;;;;;;5072804;28;20171;-77
2023/03/06 07:15:25;;;;;;;2.40;1.37;;;8.30;27.70;;;;;;5071204;28;20666;-76
2023/03/06 07:17:51;;;;;;;2.78;1.58;;;8.30;28.00;;;;;;5068696;28;20180;-77
2023/03/06 07:20:18;;;;;;;2.20;1.17;;;8.30;28.00;;;;;;5064430;28;20222;-78
2023/03/06 07:22:44;;;;;;;2.50;1.50;;;8.20;28.30;;;;;;5075143;28;20707;-79
2023/03/06 07:25:10;;;;;;;2.53;1.30;;;8.40;27.90;;;;;;5074685;28;20179;-76
2023/03/06 07:27:36;;;;;;;2.25;1.20;;;7.70;29.00;;;;;;5066605;28;20547;-76
2023/03/06 07:30:02;;;;;;;2.73;1.40;;;7.30;29.70;;;;;;5071501;28;20211;-72
2023/03/06 07:32:27;;;;;;;2.30;1.40;;;7.30;30.00;;;;;;5063389;28;20687;-72
2023/03/06 07:34:53;;;;;;;2.20;1.30;;;7.50;29.60;;;;;;5050029;28;20824;-72
2023/03/06 07:37:19;;;;;;;2.17;1.10;;;7.40;29.70;;;;;;5053813;28;20247;-72
2023/03/06 07:39:45;;;;;;;2.77;1.70;;;7.50;29.40;;;;;;5072044;28;20240;-72
2023/03/06 07:42:14;;;;;;;2.50;1.50;;;7.60;29.70;;;;;;5066845;28;20429;-73
2023/03/06 07:44:39;;;;;;;2.40;1.40;;;8.00;29.00;;;;;;5065595;28;20302;-72
2023/03/06 07:47:05;;;;;;;2.27;1.20;;;7.90;29.50;;;;;;5067683;28;20767;-75
2023/03/06 07:49:31;;;;;;;2.33;1.33;;;8.00;29.10;;;;;;5061016;28;20515;-75
2023/03/06 07:51:57;;;;;;;2.50;1.20;;;8.60;29.50;;;;;;5067811;28;20440;-75
2023/03/06 07:54:23;;;;;;;3.13;2.13;;;8.30;29.00;;;;;;5066186;28;20198;-74
2023/03/06 07:56:52;;;;;;;2.67;1.50;;;8.10;28.80;;;;;;5056326;28;20542;-75
2023/03/06 07:59:17;;;;;;;3.50;1.92;;;7.70;29.40;;;;;;5064381;28;20193;-72
2023/03/06 08:01:43;;;;;;;2.33;1.33;;;7.90;29.10;;;;;;5065550;28;20184;-72
2023/03/06 08:04:09;;;;;;;2.10;1.10;;;8.00;29.10;;;;;;5068197;28;20200;-72
2023/03/06 08:06:34;;;;;;;2.40;1.40;;;8.30;28.50;;;;;;5064074;28;20287;-77
2023/03/06 08:09:00;;;;;;;2.30;1.40;;;8.40;28.30;;;;;;5071609;28;20677;-74
2023/03/06 08:11:29;;;;;;;2.30;1.30;;;8.60;28.30;;;;;;5057375;28;20300;-73
2023/03/06 08:13:56;;;;;;;2.30;1.20;;;8.60;28.50;;;;;;5058859;28;20434;-73
2023/03/06 08:16:27;;;;;;;2.30;1.20;;;9.00;27.60;;;;;;5044309;28;20644;-73
2023/03/06 08:18:54;;;;;;;2.30;1.20;;;8.80;27.40;;;;;;5065806;28;20674;-74
2023/03/06 08:21:25;;;;;;;2.10;1.08;;;8.80;28.20;;;;;;5056740;28;20557;-71
2023/03/06 08:23:51;;;;;;;2.20;1.10;;;8.70;27.80;;;;;;5059569;28;20234;-74
2023/03/06 08:26:22;;;;;;;2.70;1.70;;;8.90;27.80;;;;;;5051826;28;20203;-74
2023/03/06 08:28:50;;;;;;;2.85;1.45;;;9.10;27.10;;;;;;5061492;28;20295;-73
2023/03/06 08:31:35;;;;;;;2.30;1.20;;;8.70;27.80;;;;;;5062493;28;20651;-73
2023/03/06 08:34:07;;;;;;;4.68;2.92;;;8.00;28.50;;;;;;5059472;28;20192;-72
2023/03/06 08:36:33;;;;;;;2.20;1.20;;;8.20;28.50;;;;;;5060604;28;20212;-74
2023/03/06 08:38:58;;;;;;;2.10;1.17;;;8.60;27.80;;;;;;5068841;28;20183;-73
2023/03/06 08:41:24;;;;;;;2.30;1.37;;;8.20;28.30;;;;;;5066864;28;20421;-74
2023/03/06 08:43:51;;;;;;;2.80;1.75;;;8.80;28.40;;;;;;5066511;28;20213;-73
2023/03/06 08:46:17;;;;;;;2.10;1.10;;;8.60;28.40;;;;;;5068527;28;20225;-73
2023/03/06 08:48:44;;;;;;;2.30;1.30;;;8.60;28.00;;;;;;5069430;28;20201;-74
2023/03/06 08:51:09;;;;;;;2.97;1.92;;;8.50;28.10;;;;;;5065535;28;20264;-73
2023/03/06 08:53:36;;;;;;;2.63;1.70;;;8.50;28.30;;;;;;5057072;28;20283;-75
2023/03/06 08:56:02;;;;;;;2.00;1.10;;;8.00;28.50;;;;;;5067399;28;20745;-75
2023/03/06 08:58:28;;;;;;;2.30;1.30;;;8.00;28.40;;;;;;5061785;28;20187;-73
2023/03/06 09:00:54;;;;;;;2.00;1.20;;;7.90;28.60;;;;;;5051225;28;20263;-75
2023/03/06 09:03:20;;;;;;;2.00;1.23;;;8.00;28.00;;;;;;5060706;28;20206;-75
2023/03/06 09:05:46;;;;;;;2.00;1.10;;;8.00;28.00;;;;;;5056030;28;20510;-74
2023/03/06 09:08:11;;;;;;;2.00;1.30;;;7.90;28.90;;;;;;5070188;28;20218;-74
2023/03/06 09:10:37;;;;;;;2.00;1.10;;;7.80;28.30;;;;;;5062571;28;20576;-74
2023/03/06 09:13:03;;;;;;;2.20;1.30;;;7.70;28.70;;;;;;5069970;28;20286;-72
2023/03/06 09:15:28;;;;;;;2.33;1.27;;;7.50;29.30;;;;;;5060216;28;20199;-71
2023/03/06 09:17:54;;;;;;;1.97;1.00;;;7.80;29.00;;;;;;5064967;28;20191;-74
2023/03/06 09:20:20;;;;;;;6.03;1.97;;;7.20;29.70;;;;;;5068433;28;20266;-72
2023/03/06 09:22:45;;;;;;;2.00;1.17;;;7.10;29.90;;;;;;5062059;28;20233;-72
2023/03/06 09:25:12;;;;;;;2.20;1.40;;;7.50;29.50;;;;;;5060546;28;20559;-73
2023/03/06 09:27:39;;;;;;;2.10;1.20;;;7.60;29.60;;;;;;5069977;28;20513;-74
2023/03/06 09:30:05;;;;;;;2.15;1.20;;;7.30;30.00;;;;;;5062756;28;20184;-74
2023/03/06 09:32:31;;;;;;;2.10;1.10;;;7.80;29.50;;;;;;5069302;28;20262;-75
2023/03/06 09:34:57;;;;;;;2.10;1.20;;;8.40;28.30;;;;;;5063353;28;20702;-73
2023/03/06 09:37:23;;;;;;;2.27;1.37;;;6.80;26.90;;;;;;5054497;28;20349;-75
2023/03/06 09:39:48;;;;;;;2.47;1.47;;;8.40;28.90;;;;;;5063638;28;20674;-73
2023/03/06 09:42:20;;;;;;;2.30;1.37;;;7.70;29.90;;;;;;5065577;28;20516;-75
2023/03/06 09:44:52;;;;;;;2.25;1.45;;;8.20;28.20;;;;;;5072735;28;20207;-74
2023/03/06 09:47:30;;;;;;;4.82;1.88;;;8.50;28.00;;;;;;5066327;28;20705;-74
2023/03/06 09:50:20;;;;;;;2.10;1.20;;;8.20;28.00;;;;;;5071981;28;20585;-74
2023/03/06 09:53:15;;;;;;;4.15;2.03;;;6.80;30.60;;;;;;5044385;28;20265;-74
2023/03/06 09:55:44;;;;;;;2.58;1.45;;;7.50;29.50;;;;;;5071598;28;20241;-73
2023/03/06 09:58:18;;;;;;;2.67;1.92;;;7.90;29.20;;;;;;5071994;28;20195;-73
2023/03/06 10:01:05;;;;;;;2.10;1.30;;;8.50;28.60;;;;;;5062515;28;20189;-73
2023/03/06 10:03:49;;;;;;;2.00;1.10;;;8.30;28.80;;;;;;5053535;28;20218;-73
2023/03/06 10:06:22;;;;;;;2.05;1.10;;;8.90;27.80;;;;;;5069028;28;20612;-74
2023/03/06 10:08:55;;;;;;;2.20;1.10;;;8.50;28.10;;;;;;5060742;28;20168;-73
2023/03/06 10:11:31;;;;;;;2.10;1.20;;;8.70;28.50;;;;;;5054228;28;20167;-73
2023/03/06 10:14:21;;;;;;;2.28;1.10;;;8.80;27.20;;;;;;5059473;28;20262;-72
2023/03/06 10:16:47;;;;;;;2.53;1.48;;;8.20;28.80;;;;;;5066027;28;20203;-71
2023/03/06 10:19:20;;;;;;;2.10;1.20;;;8.80;27.60;;;;;;5063291;28;20191;-74
2023/03/06 10:21:59;;;;;;;2.20;1.20;;;8.90;27.70;;;;;;5060810;28;20176;-74
2023/03/06 10:24:44;;;;;;;2.00;1.08;;;9.00;26.80;;;;;;5057128;28;20207;-76
2023/03/06 10:27:46;;;;;;;3.25;1.30;;;9.10;26.70;;;;;;5066398;28;20195;-74
2023/03/06 10:30:21;;;;;;;2.20;1.10;;;8.60;27.80;;;;;;5064831;28;20194;-77
2023/03/06 10:32:53;;;;;;;2.30;1.30;;;9.20;26.80;;;;;;5062039;28;20265;-74
2023/03/06 10:35:45;;;;;;;2.20;1.30;;;8.00;28.70;;;;;;5067832;28;20181;-74
2023/03/06 10:38:21;;;;;;;3.28;1.77;;;8.40;28.70;;;;;;5072263;28;20233;-74
2023/03/06 10:41:05;;;;;;;2.20;1.30;;;8.50;27.50;;;;;;5064812;28;20184;-72
2023/03/06 10:43:32;;;;;;;2.10;1.30;;;9.20;26.40;;;;;;5068159;28;20195;-75
2023/03/06 10:45:58;;;;;;;2.65;1.63;;;9.40;25.90;;;;;;5065155;28;20671;-75
2023/03/06 10:48:26;;;;;;;2.40;1.53;;;9.40;26.70;;;;;;5066021;28;20196;-73
2023/03/06 10:51:07;;;;;;;2.15;1.58;;;9.80;26.00;;;;;;5067030;28;20221;-75
2023/03/06 10:53:33;;;;;;;2.22;1.25;;;9.70;25.70;;;;;;5049687;28;20283;-73
2023/03/06 10:56:00;;;;;;;2.30;1.50;;;9.50;26.00;;;;;;5055839;28;20316;-71
2023/03/06 10:58:26;;;;;;;3.15;1.50;;;9.60;26.10;;;;;;5063526;28;20186;-70
2023/03/06 11:01:30;;;;;;;2.00;1.40;;;10.20;24.40;;;;;;5065475;28;20179;-73
2023/03/06 11:04:20;;;;;;;2.10;1.33;;;9.50;25.40;;;;;;4983396;28;20282;-70
2023/03/06 11:06:46;;;;;;;2.00;1.30;;;8.40;27.30;;;;;;4986938;28;20209;-73
2023/03/06 11:09:21;;;;;;;1.90;1.10;;;8.10;28.10;;;;;;4987417;28;20404;-72
2023/03/06 11:11:50;;;;;;;2.00;1.20;;;8.50;27.50;;;;;;4997767;28;20441;-73
2023/03/06 11:14:21;;;;;;;2.20;1.42;;;8.70;27.90;;;;;;4974149;28;20191;-71
2023/03/06 11:16:52;;;;;;;2.33;1.60;;;9.30;27.10;;;;;;4982359;28;20218;-70
2023/03/06 11:19:26;;;;;;;1.90;1.20;;;10.00;25.60;;;;;;4987450;28;20193;-72
2023/03/06 11:22:15;;;;;;;2.40;1.60;;;9.60;25.90;;;;;;4984764;28;20588;-71
2023/03/06 11:24:46;;;;;;;2.15;1.30;;;8.80;27.10;;;;;;4982773;28;20216;-71
2023/03/06 11:27:41;;;;;;;2.00;1.20;;;8.20;27.80;;;;;;4984698;28;20585;-75
2023/03/06 11:30:19;;;;;;;2.20;1.30;;;7.70;29.30;;;;;;4984118;28;20184;-76
2023/03/06 11:32:52;;;;;;;2.78;1.85;;;8.00;29.10;;;;;;4983729;28;20241;-76
2023/03/06 11:35:25;;;;;;;2.10;1.30;;;8.10;28.30;;;;;;5041450;28;20280;-73
2023/03/06 11:38:17;;;;;;;2.30;1.50;;;6.90;30.70;;;;;;5063536;28;20175;-74
2023/03/06 11:40:54;;;;;;;2.00;1.20;;;6.90;30.90;;;;;;5065794;28;20215;-71
2023/03/06 11:44:02;;;;;;;2.15;1.40;;;7.40;31.10;;;;;;5063084;28;20211;-72
2023/03/06 11:46:37;;;;;;;2.30;1.50;;;8.00;30.20;;;;;;5060636;28;20196;-78
2023/03/06 11:49:24;;;;;;;2.00;1.10;;;7.90;30.00;;;;;;5058885;28;20171;-77
2023/03/06 11:51:54;;;;;;;1.98;1.10;;;7.60;30.90;;;;;;5058202;28;20194;-76
2023/03/06 11:54:21;;;;;;;2.00;1.20;;;7.40;30.80;;;;;;5060085;28;20230;-73
2023/03/06 11:57:05;;;;;;;2.00;1.17;;;8.20;29.60;;;;;;5068581;28;20219;-75
2023/03/06 11:59:49;;;;;;;2.10;1.20;;;7.40;30.40;;;;;;5065624;28;20862;-74
2023/03/06 12:02:18;;;;;;;2.15;1.20;;;7.60;29.70;;;;;;5066855;28;20273;-73
2023/03/06 12:05:16;;;;;;;3.05;1.73;;;7.40;28.30;;;;;;5064657;28;20275;-76
2023/03/06 12:07:56;;;;;;;2.03;1.20;;;7.50;28.90;;;;;;5047907;28;20195;-74
2023/03/06 12:10:26;;;;;;;2.10;1.30;;;7.90;28.40;;;;;;5057586;28;20176;-72
2023/03/06 12:13:18;;;;;;;2.85;1.45;;;7.60;28.40;;;;;;5062313;28;20429;-75
2023/03/06 12:16:11;;;;;;;2.40;1.42;;;8.70;27.40;;;;;;5057193;28;20673;-75
2023/03/06 12:19:04;;;;;;;1.98;1.20;;;9.70;25.60;;;;;;5043504;28;20191;-75
2023/03/06 12:21:50;;;;;;;2.00;1.20;;;8.80;26.80;;;;;;5064404;28;20249;-76
2023/03/06 12:24:32;;;;;;;2.05;1.20;;;7.90;28.90;;;;;;5051375;28;20206;-76
2023/03/06 12:27:19;;;;;;;3.10;1.40;;;8.10;28.20;;;;;;5048045;28;20263;-76
2023/03/06 12:30:31;;;;;;;2.08;1.45;;;8.80;26.80;;;;;;5059606;28;20241;-74
2023/03/06 12:33:11;;;;;;;1.80;1.10;;;7.80;27.40;;;;;;4970718;28;20650;-75
2023/03/06 12:35:57;;;;;;;1.80;1.10;;;8.20;27.20;;;;;;4969764;28;20299;-76
2023/03/06 12:38:23;;;;;;;1.80;1.20;;;9.30;25.10;;;;;;4969409;28;20780;-73
2023/03/06 12:40:51;;;;;;;2.20;1.40;;;9.80;24.00;;;;;;4968928;28;20454;-74
2023/03/06 12:43:42;;;;;;;1.80;1.13;;;9.90;23.70;;;;;;4968996;28;20609;-73
2023/03/06 12:46:13;;;;;;;1.90;1.30;;;10.30;23.40;;;;;;4966361;28;20525;-75
2023/03/06 12:48:40;;;;;;;2.72;1.75;;;10.60;22.80;;;;;;4964270;28;20194;-76
2023/03/06 12:51:09;;;;;;;2.50;1.50;;;10.80;22.00;;;;;;4967790;28;20289;-76
2023/03/06 12:53:35;;;;;;;1.88;1.20;;;10.60;21.50;;;;;;4977108;28;20194;-76
2023/03/06 12:56:02;;;;;;;2.30;1.40;;;9.30;24.40;;;;;;4968539;28;20213;-75
2023/03/06 12:58:30;;;;;;;3.60;1.40;;;8.90;26.00;;;;;;4965989;28;20451;-74
2023/03/06 13:01:05;;;;;;;2.67;1.93;;;8.70;26.00;;;;;;4969491;28;21075;-75
2023/03/06 13:03:51;;;;;;;2.00;1.38;;;8.50;25.60;;;;;;5010028;28;20492;-75
2023/03/06 13:06:52;;;;;;;2.00;1.30;;;6.70;26.30;;;;;;5044486;28;20210;-75
2023/03/06 13:09:18;;;;;;;1.90;1.20;;;8.40;26.40;;;;;;5068365;28;20173;-74
2023/03/06 13:12:08;;;;;;;1.80;1.13;;;8.40;25.40;;;;;;5050345;28;20561;-74